createdAt,value
2022-10-18T00:00:11.866Z,97171.78
2022-10-18T00:02:39.421Z,97183.94
2022-10-18T00:05:07.319Z,97178.94
2022-10-18T00:07:34.875Z,97181.13
2022-10-18T00:10:05.041Z,97180.78
2022-10-18T00:12:34.110Z,97168.09
2022-10-18T00:15:01.718Z,97178.28
2022-10-18T00:17:29.624Z,97182.47
2022-10-18T00:19:57.557Z,97182.28
2022-10-18T00:22:25.405Z,97180.09
2022-10-18T00:24:53.220Z,97179.25
2022-10-18T00:27:22.093Z,97176.59
2022-10-18T00:29:53.223Z,97174.75
2022-10-18T00:32:20.999Z,97189.25
2022-10-18T00:34:48.732Z,97183.41
2022-10-18T00:37:16.665Z,97179.41
2022-10-18T00:39:44.318Z,97185.41
2022-10-18T00:42:13.044Z,97180.09
2022-10-18T00:45:06.026Z,97179.25
2022-10-18T00:47:34.675Z,97174.72
2022-10-18T00:50:05.770Z,97172.84
2022-10-18T00:52:37.628Z,97176.38
2022-10-18T00:55:06.599Z,97173.03
2022-10-18T00:57:34.769Z,97174.53
2022-10-18T01:00:07.777Z,97172.34
2022-10-18T01:02:35.299Z,97176.69
2022-10-18T01:05:02.840Z,97165.38
2022-10-18T01:07:51.671Z,97173.06
2022-10-18T01:10:30.528Z,97172.38
2022-10-18T01:13:11.182Z,97168.66
2022-10-18T01:15:59.265Z,97171.03
2022-10-18T01:18:38.440Z,97165.50
2022-10-18T01:21:16.089Z,97170.53
2022-10-18T01:24:08.760Z,97173.38
2022-10-18T01:26:55.442Z,97163.09
2022-10-18T01:29:33.924Z,97165.59
2022-10-18T01:32:05.659Z,97169.22
2022-10-18T01:34:37.101Z,97176.28
2022-10-18T01:37:09.417Z,97173.25
2022-10-18T01:39:41.377Z,97171.94
2022-10-18T01:42:13.220Z,97173.25
2022-10-18T01:44:42.578Z,97176.94
2022-10-18T01:47:14.237Z,97172.34
2022-10-18T01:49:41.841Z,97178.72
2022-10-18T01:52:11.115Z,97176.09
2022-10-18T01:54:41.713Z,97172.94
2022-10-18T01:57:18.785Z,97168.75
2022-10-18T01:59:57.252Z,97174.09
2022-10-18T02:02:39.923Z,97176.16
2022-10-18T02:05:15.409Z,97174.97
2022-10-18T02:07:55.323Z,97177.66
2022-10-18T02:10:37.232Z,97181.16
2022-10-18T02:13:04.863Z,97178.78
2022-10-18T02:15:35.714Z,97171.13
2022-10-18T02:18:09.295Z,97170.78
2022-10-18T02:20:39.027Z,97172.47
2022-10-18T02:23:09.584Z,97169.63
2022-10-18T02:25:37.939Z,97168.28
2022-10-18T02:28:06.009Z,97167.78
2022-10-18T02:30:41.935Z,97170.13
2022-10-18T02:33:16.078Z,97168.78
2022-10-18T02:35:48.515Z,97167.13
2022-10-18T02:38:18.610Z,97164.09
2022-10-18T02:40:46.130Z,97158.72
2022-10-18T02:43:15.207Z,97165.06
2022-10-18T02:45:42.842Z,97161.56
2022-10-18T02:48:11.857Z,97160.06
2022-10-18T02:50:39.372Z,97156.53
2022-10-18T02:53:07.333Z,97166.72
2022-10-18T02:55:34.827Z,97167.31
2022-10-18T02:58:02.339Z,97166.59
2022-10-18T03:00:29.833Z,97173.69
2022-10-18T03:02:57.340Z,97168.34
2022-10-18T03:05:26.215Z,97170.66
2022-10-18T03:07:53.850Z,97153.59
2022-10-18T03:10:21.356Z,97155.50
2022-10-18T03:12:48.890Z,97155.22
2022-10-18T03:15:16.435Z,97160.28
2022-10-18T03:17:43.919Z,97157.00
2022-10-18T03:20:12.431Z,97167.31
2022-10-18T03:22:41.313Z,97166.59
2022-10-18T03:25:09.196Z,97162.56
2022-10-18T03:27:36.675Z,97161.25
2022-10-18T03:30:05.692Z,97154.19
2022-10-18T03:32:33.473Z,97158.25
2022-10-18T03:35:01.276Z,97160.28
2022-10-18T03:37:28.826Z,97167.88
2022-10-18T03:39:57.704Z,97155.00
2022-10-18T03:42:25.308Z,97156.22
2022-10-18T03:44:52.835Z,97152.97
2022-10-18T03:47:20.407Z,97158.16
2022-10-18T03:49:49.156Z,97149.03
2022-10-18T03:52:17.595Z,97162.19
2022-10-18T03:54:45.086Z,97158.72
2022-10-18T03:57:13.977Z,97156.38
2022-10-18T03:59:41.535Z,97156.06
2022-10-18T04:02:09.074Z,97150.06
2022-10-18T04:04:36.596Z,97152.41
2022-10-18T04:07:04.151Z,97153.56
2022-10-18T04:09:31.750Z,97146.72
2022-10-18T04:11:59.280Z,97148.41
2022-10-18T04:14:28.294Z,97151.44
2022-10-18T04:16:55.804Z,97152.09
2022-10-18T04:19:23.289Z,97149.91
2022-10-18T04:21:50.822Z,97146.53
2022-10-18T04:24:18.600Z,97147.06
2022-10-18T04:26:46.134Z,97152.44
2022-10-18T04:29:13.684Z,97148.72
2022-10-18T04:31:42.503Z,97150.06
2022-10-18T04:34:10.543Z,97141.72
2022-10-18T04:36:38.043Z,97142.75
2022-10-18T04:39:05.560Z,97153.38
2022-10-18T04:41:33.062Z,97153.06
2022-10-18T04:44:00.584Z,97143.88
2022-10-18T04:46:28.074Z,97142.75
2022-10-18T04:48:56.953Z,97144.03
2022-10-18T04:51:24.478Z,97141.66
2022-10-18T04:53:51.949Z,97142.34
2022-10-18T04:56:19.459Z,97140.38
2022-10-18T04:58:47.137Z,97138.72
2022-10-18T05:01:14.683Z,97149.53
2022-10-18T05:03:42.228Z,97142.22
2022-10-18T05:06:11.108Z,97133.84
2022-10-18T05:08:38.688Z,97143.06
2022-10-18T05:11:06.498Z,97127.69
2022-10-18T05:13:34.127Z,97126.72
2022-10-18T05:16:02.484Z,97131.03
2022-10-18T05:18:29.992Z,97130.38
2022-10-18T05:20:58.061Z,97132.19
2022-10-18T05:23:27.006Z,97125.19
2022-10-18T05:25:55.031Z,97132.38
2022-10-18T05:28:41.022Z,97133.22
2022-10-18T05:31:11.520Z,97127.84
2022-10-18T05:33:39.348Z,97128.88
2022-10-18T05:36:07.430Z,97125.53
2022-10-18T05:38:39.875Z,97115.53
2022-10-18T05:41:07.393Z,97129.03
2022-10-18T05:43:34.935Z,97134.72
2022-10-18T05:46:02.569Z,97138.88
2022-10-18T05:48:30.076Z,97132.38
2022-10-18T05:50:58.965Z,97129.84
2022-10-18T05:53:41.927Z,97132.97
2022-10-18T05:56:12.299Z,97126.03
2022-10-18T05:58:40.740Z,97123.38
2022-10-18T06:01:09.131Z,97126.69
2022-10-18T06:03:37.519Z,97127.22
2022-10-18T06:06:07.460Z,97123.84
2022-10-18T06:08:35.892Z,97128.78
2022-10-18T06:11:07.932Z,97132.63
2022-10-18T06:13:40.939Z,97127.75
2022-10-18T06:16:08.937Z,97129.06
2022-10-18T06:18:36.458Z,97141.69
2022-10-18T06:21:03.994Z,97158.88
2022-10-18T06:23:31.711Z,97178.09
2022-10-18T06:26:00.415Z,97180.78
2022-10-18T06:28:28.720Z,97170.44
2022-10-18T06:30:58.592Z,97164.00
2022-10-18T06:33:26.829Z,97156.38
2022-10-18T06:35:58.918Z,97167.78
2022-10-18T06:38:27.161Z,97182.13
2022-10-18T06:40:54.716Z,97183.22
2022-10-18T06:43:22.814Z,97181.03
2022-10-18T06:45:50.777Z,97172.84
2022-10-18T06:50:54.770Z,97184.69
2022-10-18T06:53:22.474Z,97185.47
2022-10-18T06:55:50.071Z,97183.09
2022-10-18T06:58:17.687Z,97189.16
2022-10-18T07:00:46.902Z,97193.34
2022-10-18T07:03:14.422Z,97195.28
2022-10-18T07:05:43.339Z,97190.56
2022-10-18T07:08:10.914Z,97193.06
2022-10-18T07:10:38.426Z,97192.88
2022-10-18T07:13:30.757Z,97198.88
2022-10-18T07:16:05.580Z,97191.09
2022-10-18T07:18:34.552Z,97203.94
2022-10-18T07:21:05.041Z,97206.03
2022-10-18T07:23:33.837Z,97197.25
2022-10-18T07:26:01.855Z,97192.41
2022-10-18T07:28:29.467Z,97188.56
2022-10-18T07:30:58.158Z,97180.72
2022-10-18T07:33:30.309Z,97180.63
2022-10-18T07:36:01.963Z,97179.13
2022-10-18T07:38:30.866Z,97181.22
2022-10-18T07:40:58.880Z,97180.88
2022-10-18T07:43:26.631Z,97193.06
2022-10-18T07:45:54.286Z,97189.84
2022-10-18T07:48:22.011Z,97196.59
2022-10-18T07:50:49.548Z,97179.50
2022-10-18T07:53:17.117Z,97185.78
2022-10-18T07:55:46.155Z,97185.91
2022-10-18T07:58:13.732Z,97184.13
2022-10-18T08:00:41.508Z,97184.13
2022-10-18T08:03:09.486Z,97179.66
2022-10-18T08:05:37.027Z,97180.53
2022-10-18T08:08:07.892Z,97181.22
2022-10-18T08:10:36.241Z,97173.94
2022-10-18T08:13:05.136Z,97170.69
2022-10-18T08:15:32.631Z,97172.59
2022-10-18T08:18:00.184Z,97178.03
2022-10-18T08:20:30.951Z,97179.13
2022-10-18T08:23:00.284Z,97179.09
2022-10-18T08:25:28.666Z,97182.41
2022-10-18T08:27:56.288Z,97183.06
2022-10-18T08:30:25.268Z,97177.16
2022-10-18T08:32:52.796Z,97174.88
2022-10-18T08:35:20.325Z,97167.63
2022-10-18T08:37:48.446Z,97169.22
2022-10-18T08:40:16.780Z,97166.91
2022-10-18T08:43:01.467Z,97156.38
2022-10-18T08:45:41.827Z,97161.84
2022-10-18T08:48:21.699Z,97166.81
2022-10-18T08:50:50.672Z,97160.28
2022-10-18T08:53:23.816Z,97160.03
2022-10-18T08:55:55.393Z,97165.03
2022-10-18T08:58:26.675Z,97166.56
2022-10-18T09:01:03.815Z,97164.41
2022-10-18T09:03:49.132Z,97169.19
2022-10-18T09:06:26.522Z,97168.25
2022-10-18T09:09:18.032Z,97168.38
2022-10-18T09:12:01.915Z,97162.19
2022-10-18T09:14:45.558Z,97157.72
2022-10-18T09:17:25.092Z,97167.28
2022-10-18T09:20:09.302Z,97165.78
2022-10-18T09:22:49.983Z,97165.09
2022-10-18T09:25:20.475Z,97155.88
2022-10-18T09:27:56.812Z,97166.16
2022-10-18T09:30:33.691Z,97153.75
2022-10-18T09:33:10.909Z,97157.09
2022-10-18T09:35:44.457Z,97162.94
2022-10-18T09:38:16.870Z,97159.00
2022-10-18T09:40:52.173Z,97153.53
2022-10-18T09:43:23.860Z,97154.75
2022-10-18T09:45:54.106Z,97155.06
2022-10-18T09:48:28.079Z,97159.53
2022-10-18T09:51:01.449Z,97156.72
2022-10-18T09:53:37.566Z,97162.53
2022-10-18T09:56:07.301Z,97156.38
2022-10-18T09:58:42.507Z,97154.44
2022-10-18T10:01:12.312Z,97143.47
2022-10-18T10:03:42.925Z,97143.09
2022-10-18T10:06:26.431Z,97140.50
2022-10-18T10:09:01.926Z,97143.41
2022-10-18T10:11:33.061Z,97147.69
2022-10-18T10:14:10.589Z,97151.31
2022-10-18T10:16:45.568Z,97146.44
2022-10-18T10:19:24.497Z,97147.94
2022-10-18T10:21:56.887Z,97131.13
2022-10-18T10:24:31.133Z,97128.97
2022-10-18T10:27:08.012Z,97136.38
2022-10-18T10:29:51.436Z,97132.66
2022-10-18T10:32:21.759Z,97121.53
2022-10-18T10:34:51.197Z,97128.22
2022-10-18T10:37:36.896Z,97123.22
2022-10-18T10:40:18.441Z,97115.94
2022-10-18T10:43:33.115Z,97120.97
2022-10-18T10:46:04.980Z,97118.41
2022-10-18T10:48:35.341Z,97123.03
2022-10-18T10:51:07.948Z,97112.81
2022-10-18T10:53:45.260Z,97112.16
2022-10-18T10:56:22.142Z,97110.91
2022-10-18T10:58:50.082Z,97107.47
2022-10-18T11:01:20.259Z,97099.97
2022-10-18T11:03:49.530Z,97096.47
2022-10-18T11:06:44.396Z,97095.91
2022-10-18T11:09:22.987Z,97085.97
2022-10-18T11:12:00.528Z,97085.47
2022-10-18T11:14:31.791Z,97092.69
2022-10-18T11:17:08.070Z,97082.31
2022-10-18T11:19:43.694Z,97073.44
2022-10-18T11:22:17.452Z,97072.19
2022-10-18T11:24:45.166Z,97075.44
2022-10-18T11:27:20.570Z,97073.69
2022-10-18T11:29:59.852Z,97065.16
2022-10-18T11:32:35.473Z,97058.22
2022-10-18T11:35:20.653Z,97060.50
2022-10-18T11:38:05.421Z,97061.91
2022-10-18T11:40:43.504Z,97053.31
2022-10-18T11:43:18.272Z,97055.31
2022-10-18T11:45:55.655Z,97052.19
2022-10-18T11:48:41.428Z,97048.66
2022-10-18T11:51:16.387Z,97047.97
2022-10-18T11:54:00.768Z,97057.59
2022-10-18T11:56:38.241Z,97059.59
2022-10-18T11:59:23.039Z,97052.00
2022-10-18T12:02:03.998Z,97057.59
2022-10-18T12:04:45.026Z,97055.09
2022-10-18T12:07:28.941Z,97059.50
2022-10-18T12:10:02.421Z,97047.78
2022-10-18T12:12:33.830Z,97053.31
2022-10-18T12:15:05.163Z,97046.59
2022-10-18T12:17:46.184Z,97052.75
2022-10-18T12:20:20.421Z,97048.44
2022-10-18T12:22:56.101Z,97042.19
2022-10-18T12:25:25.973Z,97043.50
2022-10-18T12:30:40.094Z,97039.78
2022-10-18T12:33:27.889Z,97033.63
2022-10-18T12:36:07.122Z,97026.56
2022-10-18T12:38:38.772Z,97026.25
2022-10-18T12:41:07.861Z,97026.78
2022-10-18T12:43:37.587Z,97028.97
2022-10-18T12:46:12.231Z,97031.19
2022-10-18T12:48:43.672Z,97029.09
2022-10-18T12:51:16.084Z,97035.97
2022-10-18T12:53:45.853Z,97026.50
2022-10-18T12:56:42.683Z,97041.72
2022-10-18T12:59:51.819Z,97040.25
2022-10-18T13:02:28.917Z,97052.25
2022-10-18T13:05:00.711Z,97041.44
2022-10-18T13:07:43.284Z,97049.56
2022-10-18T13:10:36.834Z,97052.38
2022-10-18T13:13:40.626Z,97051.59
2022-10-18T13:16:31.251Z,97063.78
2022-10-18T13:19:03.247Z,97059.91
2022-10-18T13:21:44.440Z,97067.00
2022-10-18T13:24:24.194Z,97067.31
2022-10-18T13:27:31.100Z,97064.16
2022-10-18T13:30:12.629Z,97073.19
2022-10-18T13:32:50.717Z,97065.22
2022-10-18T13:35:44.983Z,97072.38
2022-10-18T13:38:33.152Z,97079.53
2022-10-18T13:41:03.030Z,97077.47
2022-10-18T13:44:21.279Z,97086.00
2022-10-18T13:50:31.758Z,97075.31
2022-10-18T13:53:39.237Z,97072.34
2022-10-18T13:56:24.129Z,97080.72
2022-10-18T13:59:14.037Z,97086.16
2022-10-18T14:01:54.518Z,97082.63
2022-10-18T14:04:41.506Z,97086.78
2022-10-18T14:07:12.647Z,97090.00
2022-10-18T14:09:48.888Z,97084.69
2022-10-18T14:12:27.391Z,97082.38
2022-10-18T14:15:03.111Z,97086.50
2022-10-18T14:17:37.064Z,97092.34
2022-10-18T14:20:18.191Z,97099.31
2022-10-18T14:22:50.624Z,97102.47
2022-10-18T14:25:23.898Z,97105.09
2022-10-18T14:28:11.389Z,97114.66
2022-10-18T14:30:53.583Z,97102.56
2022-10-18T14:33:34.501Z,97110.28
2022-10-18T14:36:08.078Z,97108.94
2022-10-18T14:38:47.652Z,97106.75
2022-10-18T14:41:17.576Z,97118.19
2022-10-18T14:43:46.503Z,97113.06
2022-10-18T14:46:25.888Z,97111.16
2022-10-18T14:48:55.071Z,97106.84
2022-10-18T14:51:22.987Z,97103.84
2022-10-18T14:53:52.571Z,97112.53
2022-10-18T14:56:24.228Z,97118.00
2022-10-18T14:58:53.294Z,97109.75
2022-10-18T15:01:25.254Z,97108.91
2022-10-18T15:03:57.181Z,97103.44
2022-10-18T15:06:24.896Z,97112.66
2022-10-18T15:08:57.239Z,97107.94
2022-10-18T15:11:26.293Z,97112.13
2022-10-18T15:13:56.175Z,97103.63
2022-10-18T15:16:27.006Z,97103.94
2022-10-18T15:19:03.083Z,97092.56
2022-10-18T15:21:31.028Z,97102.59
2022-10-18T15:24:21.769Z,97099.88
2022-10-18T15:26:51.114Z,97099.91
2022-10-18T15:29:20.517Z,97090.91
2022-10-18T15:31:50.294Z,97097.66
2022-10-18T15:34:21.368Z,97093.31
2022-10-18T15:36:50.203Z,97087.31
2022-10-18T15:39:20.242Z,97092.66
2022-10-18T15:41:51.540Z,97082.59
2022-10-18T15:44:25.534Z,97079.84
2022-10-18T15:46:56.364Z,97086.47
2022-10-18T15:50:00.474Z,97077.91
2022-10-18T15:52:45.760Z,97087.88
2022-10-18T15:55:56.498Z,97087.88
2022-10-18T15:58:27.578Z,97092.31
2022-10-18T16:00:58.571Z,97093.72
2022-10-18T16:03:26.603Z,97100.66
2022-10-18T16:06:00.514Z,97101.94
2022-10-18T16:08:30.448Z,97114.53
2022-10-18T16:10:58.687Z,97119.59
2022-10-18T16:13:27.852Z,97115.28
2022-10-18T16:15:56.591Z,97122.78
2022-10-18T16:18:25.628Z,97120.72
2022-10-18T16:20:53.900Z,97132.19
2022-10-18T16:23:23.647Z,97123.22
2022-10-18T16:25:52.078Z,97129.03
2022-10-18T16:28:21.329Z,97131.56
2022-10-18T16:30:55.396Z,97123.31
2022-10-18T16:33:22.975Z,97123.22
2022-10-18T16:35:50.844Z,97134.75
2022-10-18T16:38:32.627Z,97135.72
2022-10-18T16:41:02.363Z,97143.16
2022-10-18T16:43:29.908Z,97146.94
2022-10-18T16:45:58.766Z,97148.66
2022-10-18T16:48:26.534Z,97153.53
2022-10-18T16:50:55.697Z,97155.47
2022-10-18T16:53:24.951Z,97161.66
2022-10-18T16:55:54.739Z,97171.88
2022-10-18T17:00:56.299Z,97167.34
2022-10-18T17:03:25.611Z,97164.13
2022-10-18T17:05:54.127Z,97170.72
2022-10-18T17:08:23.829Z,97171.09
2022-10-18T17:10:53.409Z,97173.88
2022-10-18T17:13:21.912Z,97173.47
2022-10-18T17:15:49.459Z,97167.09
2022-10-18T17:18:21.649Z,97162.03
2022-10-18T17:20:51.063Z,97167.06
2022-10-18T17:23:18.739Z,97161.94
2022-10-18T17:25:57.750Z,97159.13
2022-10-18T17:28:34.053Z,97164.69
2022-10-18T17:31:01.626Z,97167.59
2022-10-18T17:33:29.125Z,97163.66
2022-10-18T17:35:58.004Z,97174.63
2022-10-18T17:38:25.597Z,97172.16
2022-10-18T17:40:54.377Z,97179.16
2022-10-18T17:43:21.912Z,97179.41
2022-10-18T17:45:50.847Z,97193.81
2022-10-18T17:48:18.690Z,97197.53
2022-10-18T17:50:46.266Z,97208.72
2022-10-18T17:53:16.564Z,97209.69
2022-10-18T17:55:44.093Z,97213.44
2022-10-18T17:58:11.594Z,97222.13
2022-10-18T18:00:39.124Z,97221.09
2022-10-18T18:03:06.686Z,97225.53
2022-10-18T18:05:35.377Z,97225.72
2022-10-18T18:08:04.073Z,97233.47
2022-10-18T18:10:34.500Z,97234.59
2022-10-18T18:13:02.197Z,97222.44
2022-10-18T18:15:29.716Z,97222.38
2022-10-18T18:17:58.208Z,97215.34
2022-10-18T18:20:26.523Z,97218.22
2022-10-18T18:22:54.200Z,97213.97
2022-10-18T18:25:21.752Z,97206.69
2022-10-18T18:27:50.617Z,97213.75
2022-10-18T18:30:18.291Z,97206.69
2022-10-18T18:32:45.918Z,97208.84
2022-10-18T18:35:13.643Z,97207.53
2022-10-18T18:37:41.155Z,97205.66
2022-10-18T18:40:09.695Z,97208.34
2022-10-18T18:42:37.207Z,97204.78
2022-10-18T18:45:07.076Z,97186.91
2022-10-18T18:47:35.488Z,97185.81
2022-10-18T18:50:03.183Z,97196.44
2022-10-18T18:52:31.064Z,97204.97
2022-10-18T18:54:58.756Z,97200.78
2022-10-18T18:57:26.347Z,97210.16
2022-10-18T18:59:53.891Z,97213.75
2022-10-18T19:02:22.773Z,97209.31
2022-10-18T19:04:50.719Z,97202.94
2022-10-18T19:07:18.302Z,97207.75
2022-10-18T19:09:46.997Z,97196.09
2022-10-18T19:12:16.455Z,97193.97
2022-10-18T19:14:46.970Z,97206.66
2022-10-18T19:17:14.518Z,97200.09
2022-10-18T19:19:43.506Z,97206.81
2022-10-18T19:22:11.105Z,97198.22
2022-10-18T19:24:38.613Z,97195.16
2022-10-18T19:27:09.598Z,97197.56
2022-10-18T19:29:38.695Z,97198.59
2022-10-18T19:32:08.435Z,97199.88
2022-10-18T19:34:36.418Z,97211.72
2022-10-18T19:37:05.311Z,97203.75
2022-10-18T19:39:34.981Z,97207.59
2022-10-18T19:42:04.755Z,97220.69
2022-10-18T19:44:34.108Z,97225.44
2022-10-18T19:47:01.659Z,97226.25
2022-10-18T19:49:29.676Z,97219.22
2022-10-18T19:51:57.626Z,97216.47
2022-10-18T19:54:27.101Z,97216.44
2022-10-18T19:56:54.840Z,97220.19
2022-10-18T19:59:23.140Z,97218.50
2022-10-18T20:01:50.730Z,97212.31
2022-10-18T20:04:18.363Z,97209.53
2022-10-18T20:06:46.358Z,97205.63
2022-10-18T20:09:19.338Z,97203.47
2022-10-18T20:11:49.693Z,97197.78
2022-10-18T20:14:17.263Z,97208.25
2022-10-18T20:16:44.892Z,97205.50
2022-10-18T20:19:12.465Z,97205.50
2022-10-18T20:21:40.190Z,97199.66
2022-10-18T20:24:09.259Z,97193.75
2022-10-18T20:26:36.995Z,97194.72
2022-10-18T20:29:07.433Z,97205.56
2022-10-18T20:31:38.865Z,97210.63
2022-10-18T20:34:08.577Z,97215.22
2022-10-18T20:36:36.600Z,97225.75
2022-10-18T20:39:05.183Z,97220.22
2022-10-18T20:41:34.658Z,97222.25
2022-10-18T20:44:04.016Z,97222.06
2022-10-18T20:46:34.518Z,97210.41
2022-10-18T20:49:02.139Z,97201.59
2022-10-18T20:51:29.796Z,97207.38
2022-10-18T20:53:57.674Z,97211.78
2022-10-18T20:56:27.183Z,97207.47
2022-10-18T20:58:56.609Z,97206.03
2022-10-18T21:01:26.041Z,97205.28
2022-10-18T21:03:57.393Z,97208.00
2022-10-18T21:06:26.493Z,97207.88
2022-10-18T21:08:55.481Z,97219.19
2022-10-18T21:11:23.902Z,97216.69
2022-10-18T21:13:52.396Z,97228.84
2022-10-18T21:16:20.441Z,97227.91
2022-10-18T21:18:48.583Z,97232.94
2022-10-18T21:21:19.838Z,97228.44
2022-10-18T21:23:48.125Z,97233.91
2022-10-18T21:26:17.007Z,97238.94
2022-10-18T21:28:44.877Z,97236.28
2022-10-18T21:31:14.530Z,97230.91
2022-10-18T21:33:42.364Z,97224.25
2022-10-18T21:36:10.075Z,97220.22
2022-10-18T21:38:39.440Z,97218.91
2022-10-18T21:41:11.476Z,97235.59
2022-10-18T21:43:41.735Z,97238.09
2022-10-18T21:46:10.902Z,97222.56
2022-10-18T21:48:39.287Z,97217.91
2022-10-18T21:51:08.940Z,97214.22
2022-10-18T21:53:37.145Z,97212.56
2022-10-18T21:56:08.395Z,97209.06
2022-10-18T21:58:36.376Z,97206.75
2022-10-18T22:01:08.406Z,97203.47
2022-10-18T22:03:36.003Z,97200.09
2022-10-18T22:06:07.537Z,97184.88
2022-10-18T22:08:35.840Z,97184.31
2022-10-18T22:11:04.185Z,97187.47
2022-10-18T22:13:33.142Z,97190.56
2022-10-18T22:16:02.352Z,97182.81
2022-10-18T22:18:30.652Z,97183.56
2022-10-18T22:21:00.185Z,97173.69
2022-10-18T22:23:32.313Z,97175.44
2022-10-18T22:26:03.658Z,97177.38
2022-10-18T22:28:31.235Z,97174.19
2022-10-18T22:31:00.125Z,97168.84
2022-10-18T22:33:28.109Z,97183.72
2022-10-18T22:35:55.646Z,97181.28
2022-10-18T22:38:23.191Z,97173.72
2022-10-18T22:40:51.741Z,97167.81
2022-10-18T22:43:19.692Z,97170.84
2022-10-18T22:45:47.210Z,97160.53
2022-10-18T22:48:16.073Z,97173.16
2022-10-18T22:50:43.566Z,97165.69
2022-10-18T22:53:11.082Z,97170.22
2022-10-18T22:55:38.609Z,97167.06
2022-10-18T22:58:06.106Z,97170.41
2022-10-18T23:00:33.681Z,97166.06
2022-10-18T23:03:01.313Z,97163.06
2022-10-18T23:05:30.176Z,97166.41
2022-10-18T23:07:57.663Z,97161.06
2022-10-18T23:10:25.166Z,97160.25
2022-10-18T23:12:52.641Z,97163.28
2022-10-18T23:15:20.151Z,97159.09
2022-10-18T23:17:49.869Z,97165.94
2022-10-18T23:20:17.505Z,97156.06
2022-10-18T23:22:46.381Z,97160.75
2022-10-18T23:25:14.044Z,97157.41
2022-10-18T23:30:14.222Z,97162.94
2022-10-18T23:32:41.725Z,97155.09
2022-10-18T23:35:10.344Z,97155.44
2022-10-18T23:37:37.987Z,97162.13
2022-10-18T23:40:08.411Z,97156.25
2022-10-18T23:42:35.966Z,97173.41
2022-10-18T23:45:03.549Z,97164.56
2022-10-18T23:47:31.357Z,97169.03
2022-10-18T23:49:59.094Z,97173.03
2022-10-18T23:52:26.604Z,97178.41
2022-10-18T23:54:54.114Z,97179.75
2022-10-18T23:57:22.972Z,97165.41
2022-10-18T23:59:50.467Z,97176.34
